Daily Weather Observations for Burdell (Townsville)
For Tuesday 26th February 2019

This table is designed for ease of comparison to Bureau of Meteorology recorded weather data.

Station Details Name: BURDELL Lat: -19.24 Lon: 146.69 Height: 8.5 m
Date/Time
EST
Temp
°C
App
Temp
°C
Dew
Point
°C
Rel
Hum
%
Delta-T
°C
Wind Press
QNH
hPa
Press
MSL
hPa
Rain since
9am
mm
Dir  Spd
km/h
Gust
km/h
Spd
kts
Gust
kts
26/11:30pm 25.5 27.9 21.4 78 2.9 SE 11 16 6 9 1012.5 1012.5 0.0
26/11:00pm 25.9 28.9 21.6 77 3.0 SE 10 18 5 10 1012.8 1012.8 0.0
26/10:30pm 26.1 28.8 21.5 76 3.2 SE 10 16 6 9 1012.8 1012.8 0.0
26/10:00pm 26.3 29.0 21.7 76 3.2 SE 12 16 6 9 1012.6 1012.6 0.0
26/09:30pm 26.5 28.8 21.9 76 3.2 SE 15 26 8 14 1012.5 1012.5 0.0
26/09:00pm 26.7 29.6 22.5 78 3.0 SE 12 23 6 13 1012.4 1012.4 0.0
26/08:30pm 26.9 29.9 22.5 77 3.1 SE 12 21 6 11 1012.0 1012.0 0.0
26/08:00pm 26.6 29.7 22.2 77 3.1 E 10 18 5 10 1011.9 1011.9 0.0
26/07:30pm 26.8 29.5 22.0 75 3.4 E 12 18 7 10 1011.6 1011.6 0.0
26/07:00pm 26.9 29.7 21.6 73 3.7 E 11 16 6 9 1011.3 1011.3 0.0
26/06:30pm 27.7 30.2 21.5 70 4.3 E 14 29 7 16 1011.0 1011.0 0.0
26/06:00pm 28.7 31.1 21.2 64 5.2 ENE 19 26 10 14 1010.5 1010.5 0.0
26/05:30pm 29.5 31.7 20.8 60 6.0 ENE 19 29 10 16 1010.3 1010.3 0.0
26/05:00pm 29.5 31.7 20.9 61 6.0 E 24 32 13 17 1010.2 1010.2 0.0
26/04:30pm 30.7 34.2 22.0 60 6.1 ESE 21 23 11 13 1010.5 1010.5 0.0
26/04:00pm 31.3 34.5 21.7 57 6.7 E 21 29 11 16 1010.4 1010.4 0.0
26/03:30pm 30.5 33.2 21.4 59 6.4 E 18 23 10 13 1010.2 1010.2 0.0
26/03:00pm 31.3 34.1 21.6 58 6.8 SE 26 37 14 20 1010.3 1010.3 0.0
26/02:30pm 31.6 35.3 22.0 58 6.8 ENE 25 39 14 21 1010.4 1010.4 0.0
26/02:00pm 31.2 35.0 22.2 59 6.4 ENE 24 34 13 18 1010.6 1010.6 0.0
26/01:30pm 30.9 34.9 22.6 62 5.9 E 21 26 12 14 1010.9 1010.9 0.0
26/01:00pm 31.3 34.5 21.9 60 6.6 ENE 20 32 11 17 1011.1 1011.1 0.0
26/12:30pm 31.0 34.0 21.6 58 6.6 ENE 20 29 11 16 1011.3 1011.3 0.0
26/12:00pm 31.8 35.0 21.3 54 7.3 SE 23 42 12 23 1011.8 1011.8 0.0
26/11:30am 32.6 35.9 21.6 53 7.7 E 20 29 11 16 1012.3 1012.3 0.0
26/11:00am 31.9 34.2 20.4 52 7.9 ESE 16 26 9 14 1012.7 1012.7 0.0
26/10:30am 30.4 32.0 19.9 55 7.2 SE 25 34 14 18 1013.3 1013.3 0.0
26/10:00am 29.8 31.6 20.0 56 6.7 SE 23 34 12 18 1013.4 1013.4 0.0
26/09:30am 28.4 30.1 19.9 61 5.8 SE 28 37 15 20 1013.6 1013.6 0.0
26/09:00am 27.8 29.7 21.2 69 4.6 SSE 18 26 9 14 1013.7 1013.7 0.0
26/08:30am 27.2 29.3 21.5 71 4.0 S 14 18 8 10 1013.5 1013.5 0.0
26/08:00am 26.3 28.1 21.3 75 3.5 S 16 18 9 10 1013.2 1013.2 0.0
26/07:30am 25.0 26.9 21.1 80 2.7 S 13 18 7 10 1013.1 1013.1 0.0
26/07:00am 23.7 25.8 20.6 83 2.1 SSE 12 16 6 9 1012.9 1012.9 0.0
26/06:30am 22.9 25.2 20.1 84 1.9 SSE 8 10 4 6 1012.6 1012.6 0.0
26/06:00am 22.9 24.8 20.1 84 1.9 S 10 13 6 7 1012.5 1012.5 0.0
26/05:30am 22.9 24.9 20.1 84 1.9 SSE 10 13 5 7 1012.2 1012.2 0.0
26/05:00am 23.1 25.4 20.2 84 2.0 S 8 13 4 7 1011.9 1011.9 0.0
26/04:30am 22.9 26.1 20.1 84 1.9 S 4 5 2 3 1011.8 1011.8 0.0
26/04:00am 23.0 25.8 20.0 83 2.0 S 5 8 3 4 1011.8 1011.8 0.0
26/03:30am 23.2 26.7 20.0 82 2.2 S 3 5 1 3 1011.8 1011.8 0.0
26/03:00am 23.3 26.8 20.1 82 2.2 SSW 3 5 2 3 1011.9 1011.9 0.0
26/02:30am 23.7 27.2 20.2 81 2.4 S 3 5 1 3 1011.9 1011.9 0.0
26/02:00am 24.1 27.3 20.4 80 2.5 S 6 10 3 6 1012.3 1012.3 0.0
26/01:30am 24.5 27.9 20.7 80 2.6 S 6 8 3 4 1012.5 1012.5 0.0
26/01:00am 24.9 28.3 20.6 78 3.0 SSE 3 5 2 3 1012.9 1012.9 0.0
26/12:30am 25.0 28.6 20.8 78 2.9 S 2 2 1 1 1013.1 1013.1 0.0
26/12:00am 25.7 29.0 20.9 75 3.3 SSE 4 8 2 4 1013.3 1013.3 0.0
 


NOTE: The apparent temperature specified in the table above is calculated using both the Heat Index and Steadman method. This differs to the Bureau of Meteorology's calculation which uses the Steadman method alone.